^^

..:: Metar reader and decoder ::..




OSSERVAZIONI E PREVISIONI METEOROLOGICHE DAGLI AEROPORTI ITALIANI
(messaggi METAR)

 


LIPX - Villafranca(Cv/M, Italy
Distance from station: NNE 28km
Updated: Thu, 23-May-2024 20:50
Clear
Clear
 Wind from NW
Wind: NW 11 km/h
Temperature: 15°C
Dew Point: 13°C
Humidity: 88%
Barometer: 1016 hPa
Summary: Clear
Visibility: greater than 10 km
2024/05/23 18:50 LIPX 231850Z 31006KT CAVOK 15/13 Q1016
LIPO - Brescia/Montichiari, Italy
Distance from station: NW 38km
Updated: Thu, 23-May-2024 20:50
Clear
Clear
 Wind from WSW
Wind: WSW 9 km/h
Temperature: 15°C
Dew Point: 12°C
Humidity: 82%
Barometer: 1016 hPa
Clouds: Clear
Visibility: 10 km
2024/05/23 18:50 LIPO 231850Z AUTO 25005KT 9999 NCD 15/12 Q1016
 
LIPL - Ghedi (it-Afb), Italy
Distance from station: NW 42km
Updated: Thu, 23-May-2024 19:55
Clear
Clear
 Wind from W
Wind: W 7 km/h
Temperature: 18°C
Dew Point: 14°C
Humidity: 78%
Barometer: 1015 hPa
Summary: Clear
Visibility: greater than 10 km
2024/05/23 17:55 LIPL 231755Z 28004KT CAVOK 18/14 Q1015
LIMP - Parma, Italy
Distance from station: SW 49km
Updated: Thu, 23-May-2024 19:50
Few Clouds
Few Clouds
 Wind from W
Wind: W 9 km/h
Temperature: 17°C
Dew Point: 13°C
Humidity: 77%
Barometer: 1016 hPa
Clouds: Few Clouds
Visibility: 10 km
Cloud details: Few Clouds 610 m
2024/05/23 17:50 LIMP 231750Z 26005KT 9999 FEW020 17/13 Q1016
 
LIMS - Piacenza (it-Afb, Italy
Distance from station: WSW 81km
Updated: Thu, 23-May-2024 19:55
Few Clouds
Few Clouds
 Wind from calm
Wind: Calm
Temperature: 18°C
Dew Point: 18°C
Humidity: 100%
Barometer: 1015 hPa
Clouds: Few Clouds
Visibility: 10 km
Cloud details: Few Clouds 1219 m
2024/05/23 17:55 LIMS 231755Z 00000KT 9999 FEW040 18/18 Q1015
LIPF - Ferrara (aut), Italy
Distance from station: ESE 84km
Updated: Thu, 23-May-2024 19:55
Clear
Clear
 Wind from calm
Wind: Calm
Temperature: 19°C
Dew Point: 15°C
Humidity: 78%
Barometer: 1016 hPa
Summary: Clear
Visibility: greater than 10 km
2024/05/23 17:55 LIPF 231755Z 00000KT CAVOK 19/15 Q1016
 
LIPE - Bologna/Borgo (a, Italy
Distance from station: SE 88km
Updated: Thu, 23-May-2024 20:50
Clear
Clear
 Wind from ENE
Wind: ENE 7 km/h
Temperature: 17°C
Dew Point: 13°C
Humidity: 77%
Barometer: 1016 hPa
Summary: Clear
Visibility: greater than 10 km
2024/05/23 18:50 LIPE 231850Z 06004KT 030V090 CAVOK 17/13 Q1016
LIPU - Padova (civ/It-A, Italy
Distance from station: ENE 93km
Updated: Thu, 23-May-2024 15:50
NOT Current
Partly Cloudy
Partly Cloudy
 Wind from SW
Wind: SW 7 km/h
Temperature: 23°C
Dew Point: 11°C
Humidity: 47%
Barometer: 1014 hPa
Clouds: Partly Cloudy
Visibility: 10 km
Cloud details: Partly Cloudy 1219 m
2024/05/23 13:50 LIPU 231350Z 23004KT 190V270 9999 SCT040 23/11 Q1014
 
LIME - Bergamo/Orio Ser, Italy
Distance from station: NW 95km
Updated: Thu, 23-May-2024 20:50
Partly Cloudy
Partly Cloudy
 Wind from NW
Wind: NW 6 km/h
Temperature: 15°C
Dew Point: 12°C
Humidity: 82%
Barometer: 1016 hPa
Clouds: Partly Cloudy
Visibility: 10 km
Cloud details: Partly Cloudy 2134 m
2024/05/23 18:50 LIME 231850Z 32003KT 9999 SCT070 15/12 Q1016 NOSIG
LIMT - Cisa Pass, Italy
Distance from station: SW 103km
Updated: Mon, 23-Sep-2019 13:55
NOT Current
Fog
Fog
 Wind from calm
Wind: Calm
Temperature: 10°C
Dew Point: 10°C
Humidity: 100%
Barometer: 1014 hPa
Summary: Fog
Visibility: 0 km
2019/09/23 11:55 LIMT 231155Z 00000KT 0000 FG VV/// 10/10 Q1014 RMK MON INVIS VAL INVIS VIS MIN 0000
 
LIVC - Cimone Mountain, Italy
Distance from station: S 108km
Updated: Thu, 23-May-2024 19:55

 Wind from SSW
Wind: SSW 9 km/h
Temperature: 5°C
Wind Chill: 3°C
Dew Point: 3°C
Humidity: 87%
Barometer: 1020 hPa
2024/05/23 17:55 LIVC 231755Z AUTO 21005KT //// 05/03 Q1020
LIVP - Paganella Mounta, Italy
Distance from station: NNE 112km
Updated: Thu, 23-May-2024 19:55
Few Clouds
Few Clouds
 Wind from NW
Wind: NW 6 km/h
Temperature: 4°C
Dew Point: 0°C
Humidity: 75%
Barometer: 1018 hPa
Clouds: Few Clouds
Visibility: 10 km
Cloud details: Few Clouds 1006 m
2024/05/23 17:55 LIVP 231755Z 31003KT 9999 FEW033 04/00 Q1018
 
LIML - Milano/Linate, Italy
Distance from station: WNW 115km
Updated: Thu, 23-May-2024 20:50
Few Clouds
Few Clouds
 Wind from SE
Wind: SE 6 km/h
Temperature: 17°C
Dew Point: 14°C
Humidity: 83%
Barometer: 1016 hPa
Clouds: Few Clouds
Visibility: 10 km
Cloud details: Few Clouds 1219 m
2024/05/23 18:50 LIML 231850Z 13003KT 080V160 9999 FEW040 17/14 Q1016 NOSIG
LIPS - Istrana (it-Afb), Italy
Distance from station: ENE 123km
Updated: Thu, 23-May-2024 19:55
Light rain, Mostly cloudy
Light rain, Mostly cloudy
 Wind from NNE
Wind: NNE 7 km/h
Temperature: 17°C
Dew Point: 14°C
Humidity: 83%
Barometer: 1015 hPa
Summary: Light Rain
Clouds: Mostly Cloudy
Visibility: 10 km
Cloud details: Few Clouds 610 m
Mostly Cloudy 762 m
2024/05/23 17:55 LIPS 231755Z 03004KT 9999 -RA FEW020TCU BKN025 17/14 Q1015
 
LIPH - Treviso(Civ/It-A, Italy
Distance from station: ENE 127km
Updated: Thu, 23-May-2024 20:50
Clear
Clear
 Wind from SE
Wind: SE 6 km/h
Temperature: 16°C
Dew Point: 15°C
Humidity: 94%
Barometer: 1016 hPa
Summary: Clear
Visibility: greater than 10 km
2024/05/23 18:50 LIPH 231850Z 14003KT 110V170 CAVOK 16/15 Q1016
LIPZ - Venezia/Tessera, Italy
Distance from station: ENE 133km
Updated: Thu, 23-May-2024 20:50
Few Clouds
Few Clouds
 Wind from ESE
Wind: ESE 6 km/h
Temperature: 17°C
Dew Point: 12°C
Humidity: 73%
Barometer: 1016 hPa
Clouds: Few Clouds
Visibility: 10 km
Cloud details: Few Clouds 1372 m
2024/05/23 18:50 LIPZ 231850Z 12003KT 9999 FEW045 17/12 Q1016 NOSIG
 
LIQW - Sarzana/Luni, Italy
Distance from station: SSW 135km
Updated: Thu, 23-May-2024 15:55
NOT Current
Partly Cloudy
Partly Cloudy
 Wind from SSW
Wind: SSW 9 km/h
Temperature: 20°C
Dew Point: 15°C
Humidity: 73%
Barometer: 1017 hPa
Clouds: Partly Cloudy
Visibility: 10 km
Cloud details: Partly Cloudy 762 m
2024/05/23 13:55 LIQW 231355Z 20005KT 9999 SCT025 20/15 Q1017
LIVR - Rolle Pass, Italy
Distance from station: NE 150km
Updated: Thu, 23-May-2024 19:55
Mostly Cloudy
Mostly Cloudy
 Wind from SE
Wind: SE 15 km/h
Temperature: 4°C
Wind Chill: 1°C
Dew Point: 4°C
Humidity: 100%
Barometer: 1018 hPa
Clouds: Mostly Cloudy
Visibility: 10 km
Cloud details: Mostly Cloudy 762 m
2024/05/23 17:55 LIVR 231755Z 14008KT 9999 BKN025 04/04 Q1018
 
LIPC - Cervia (it-Afb), Italy
Updated: Thu, 23-May-2024 19:55
Few Clouds
Few Clouds
 Wind from NNE
Wind: NNE 13 km/h
Temperature: 20°C
Dew Point: 15°C
Humidity: 73%
Barometer: 1016 hPa
Clouds: Few Clouds
Visibility: 10 km
Cloud details: Few Clouds 1219 m
2024/05/23 17:55 LIPC 231755Z 02007KT 9999 FEW040 20/15 Q1016
LIPR - Rimini (civ/It-A, Italy
Updated: Thu, 23-May-2024 20:50
Nearby thunderstorm, Partly cloudy
Nearby thunderstorm, Partly cloudy
 Wind from W
Wind: W 26 km/h
Temperature: 20°C
Dew Point: 13°C
Humidity: 64%
Barometer: 1016 hPa
Summary: Nearby Thunderstorm
Clouds: Partly Cloudy
Visibility: 10 km
Cloud details: Few Clouds 1524 m
Partly Cloudy 1829 m
2024/05/23 18:50 LIPR 231850Z 28014KT 9999 VCTS FEW050CB SCT060 20/13 Q1016






METEO PILLOLE
Il ciclone tropicale di maggiore durata
Oceano Pacifico
Il sistema di tempeste battezzato John percorre in lungo e in largo il Pacifico per ben 31 giorni, tra l'agosto e il settembre 1994.

Do NOT follow this link or you will be banned from the site!